createdAt,value
2022-12-16T00:03:14.172Z,13.88
2022-12-16T00:08:10.828Z,11.07
2022-12-16T00:13:10.482Z,13.45
2022-12-16T00:18:07.130Z,12.43
2022-12-16T00:23:03.548Z,12.43
2022-12-16T00:28:00.598Z,11.73
2022-12-16T00:32:57.032Z,13.07
2022-12-16T00:37:53.401Z,12.40
2022-12-16T00:42:49.981Z,12.85
2022-12-16T00:47:46.682Z,12.65
2022-12-16T00:52:43.041Z,12.35
2022-12-16T00:57:39.486Z,13.55
2022-12-16T01:02:35.949Z,12.50
2022-12-16T01:07:32.441Z,12.63
2022-12-16T01:12:28.819Z,12.43
2022-12-16T01:17:28.185Z,11.65
2022-12-16T01:22:25.384Z,11.48
2022-12-16T01:27:21.810Z,11.68
2022-12-16T01:32:19.438Z,10.35
2022-12-16T01:37:15.821Z,11.32
2022-12-16T01:42:16.815Z,12.20
2022-12-16T01:47:16.447Z,12.25
2022-12-16T01:52:21.115Z,12.35
2022-12-16T01:57:22.360Z,12.30
2022-12-16T02:02:20.494Z,11.82
2022-12-16T02:07:17.038Z,12.00
2022-12-16T02:12:20.849Z,12.65
2022-12-16T02:17:24.417Z,13.50
2022-12-16T02:22:23.364Z,11.85
2022-12-16T02:33:07.442Z,10.80
2022-12-16T02:38:27.387Z,11.88
2022-12-16T02:43:43.838Z,10.70
2022-12-16T02:48:40.280Z,10.60
2022-12-16T02:53:39.297Z,8.75
2022-12-16T02:58:46.827Z,11.15
2022-12-16T03:04:12.672Z,11.30
2022-12-16T03:09:12.768Z,11.27
2022-12-16T03:14:11.824Z,10.52
2022-12-16T03:19:11.716Z,11.65
2022-12-16T03:24:10.703Z,10.35
2022-12-16T03:29:26.261Z,11.00
2022-12-16T03:34:37.605Z,11.52
2022-12-16T03:39:56.533Z,12.00
2022-12-16T03:44:53.178Z,10.52
2022-12-16T03:49:49.839Z,11.85
2022-12-16T03:54:46.196Z,10.85
2022-12-16T03:59:42.877Z,11.25
2022-12-16T04:04:39.256Z,12.30
2022-12-16T04:09:35.629Z,12.05
2022-12-16T04:14:53.562Z,14.27
2022-12-16T04:20:09.302Z,10.63
2022-12-16T04:25:10.713Z,13.07
2022-12-16T04:30:19.792Z,12.65
2022-12-16T04:35:34.764Z,10.70
2022-12-16T04:40:49.988Z,10.20
2022-12-16T04:46:05.964Z,9.80
2022-12-16T04:51:31.519Z,10.63
2022-12-16T04:56:46.723Z,10.90
2022-12-16T05:02:02.220Z,10.23
2022-12-16T05:07:17.122Z,10.57
2022-12-16T05:12:32.017Z,11.75
2022-12-16T05:17:47.203Z,11.18
2022-12-16T05:23:02.272Z,12.07
2022-12-16T05:28:17.561Z,10.10
2022-12-16T05:33:33.055Z,10.13
2022-12-16T05:38:48.414Z,10.23
2022-12-16T05:44:03.273Z,11.07
2022-12-16T05:49:18.406Z,10.27
2022-12-16T05:54:33.684Z,10.77
2022-12-16T05:59:49.136Z,10.18
2022-12-16T06:05:04.353Z,10.38
2022-12-16T06:10:19.172Z,9.30
2022-12-16T06:15:34.195Z,9.63
2022-12-16T06:20:49.356Z,9.07
2022-12-16T06:26:04.301Z,8.65
2022-12-16T06:31:19.098Z,8.38
2022-12-16T06:36:34.071Z,9.32
2022-12-16T06:41:48.808Z,8.07
2022-12-16T06:47:03.608Z,9.18
2022-12-16T06:52:18.717Z,9.40
2022-12-16T06:57:33.803Z,9.98
2022-12-16T07:02:49.078Z,10.40
2022-12-16T07:08:08.094Z,11.00
2022-12-16T07:13:23.258Z,7.80
2022-12-16T07:18:38.524Z,9.20
2022-12-16T07:23:53.747Z,9.88
2022-12-16T07:29:09.555Z,10.63
2022-12-16T07:34:24.477Z,9.57
2022-12-16T07:39:41.208Z,10.18
2022-12-16T07:44:56.428Z,7.60
2022-12-16T07:50:11.647Z,9.23
2022-12-16T07:55:27.018Z,7.72
2022-12-16T08:00:42.091Z,7.95
2022-12-16T08:05:56.891Z,7.90
2022-12-16T08:11:11.715Z,7.75
2022-12-16T08:16:26.971Z,8.02
2022-12-16T08:21:42.105Z,9.18
2022-12-16T08:26:57.236Z,9.90
2022-12-16T08:32:12.763Z,10.25
2022-12-16T08:37:27.877Z,9.68
2022-12-16T08:42:42.877Z,8.75
2022-12-16T08:47:58.032Z,9.73
2022-12-16T08:53:13.250Z,9.98
2022-12-16T08:58:28.453Z,9.30
2022-12-16T09:03:43.935Z,8.18
2022-12-16T09:09:12.745Z,6.43
2022-12-16T09:14:27.470Z,7.78
2022-12-16T09:19:42.358Z,6.15
2022-12-16T09:24:57.644Z,7.45
2022-12-16T09:30:12.677Z,6.18
2022-12-16T09:35:27.919Z,6.93
2022-12-16T09:40:43.172Z,7.38
2022-12-16T09:46:07.412Z,7.00
2022-12-16T09:51:24.767Z,7.45
2022-12-16T09:56:51.663Z,8.20
2022-12-16T10:02:20.757Z,7.65
2022-12-16T10:07:38.637Z,7.40
2022-12-16T10:13:07.322Z,7.35
2022-12-16T10:18:32.187Z,6.97
2022-12-16T10:23:57.470Z,6.82
2022-12-16T10:29:30.508Z,7.28
2022-12-16T10:34:53.279Z,7.47
2022-12-16T10:40:14.437Z,7.85
2022-12-16T10:45:44.149Z,8.10
2022-12-16T10:50:59.324Z,8.48
2022-12-16T10:56:56.214Z,6.65
2022-12-16T11:02:22.128Z,7.97
2022-12-16T11:07:57.396Z,8.02
2022-12-16T11:13:12.173Z,9.18
2022-12-16T11:18:33.187Z,7.80
2022-12-16T11:24:08.325Z,9.23
2022-12-16T11:29:36.174Z,9.18
2022-12-16T11:34:53.066Z,9.52
2022-12-16T11:40:07.954Z,10.13
2022-12-16T11:45:31.070Z,10.40
2022-12-16T11:50:51.165Z,9.65
2022-12-16T11:56:15.964Z,10.07
2022-12-16T12:01:45.038Z,9.10
2022-12-16T12:07:18.208Z,10.75
2022-12-16T12:12:52.445Z,9.32
2022-12-16T12:18:20.468Z,12.50
2022-12-16T12:23:46.504Z,14.63
2022-12-16T12:29:22.523Z,11.20
2022-12-16T12:35:14.912Z,9.70
2022-12-16T12:40:45.154Z,10.77
2022-12-16T12:46:20.865Z,11.25
2022-12-16T12:51:52.881Z,10.75
2022-12-16T12:57:11.112Z,9.55
2022-12-16T13:02:33.670Z,9.17
2022-12-16T13:07:51.307Z,9.32
2022-12-16T13:13:36.433Z,9.68
2022-12-16T13:18:52.026Z,7.90
2022-12-16T13:24:07.064Z,9.48
2022-12-16T13:29:38.869Z,9.75
2022-12-16T13:34:53.967Z,9.25
2022-12-16T13:40:35.496Z,9.50
2022-12-16T13:46:31.950Z,8.30
2022-12-16T13:51:56.089Z,9.32
2022-12-16T13:57:27.698Z,8.60
2022-12-16T14:02:57.689Z,9.05
2022-12-16T14:08:13.051Z,7.45
2022-12-16T14:13:56.030Z,8.07
2022-12-16T14:19:31.237Z,7.68
2022-12-16T14:24:46.519Z,7.63
2022-12-16T14:30:02.638Z,8.52
2022-12-16T14:35:20.809Z,7.93
2022-12-16T14:40:46.296Z,8.67
2022-12-16T14:46:09.426Z,9.35
2022-12-16T14:51:48.232Z,8.38
2022-12-16T14:57:03.652Z,8.43
2022-12-16T15:02:31.554Z,7.65
2022-12-16T15:07:54.109Z,5.50
2022-12-16T15:13:25.222Z,7.57
2022-12-16T15:18:45.637Z,8.50
2022-12-16T15:24:03.312Z,9.50
2022-12-16T15:29:18.343Z,8.77
2022-12-16T15:34:43.765Z,8.25
2022-12-16T15:40:00.638Z,9.13
2022-12-16T15:45:15.833Z,8.27
2022-12-16T15:50:33.435Z,8.88
2022-12-16T15:56:04.504Z,9.20
2022-12-16T16:01:20.078Z,9.05
2022-12-16T16:06:43.929Z,9.95
2022-12-16T16:11:59.889Z,9.32
2022-12-16T16:17:15.054Z,10.23
2022-12-16T16:22:36.965Z,10.65
2022-12-16T16:27:52.099Z,9.43
2022-12-16T16:33:07.222Z,10.65
2022-12-16T16:38:22.110Z,9.38
2022-12-16T16:43:37.425Z,9.57
2022-12-16T16:48:52.533Z,11.02
2022-12-16T16:54:07.767Z,11.07
2022-12-16T16:59:23.450Z,12.48
2022-12-16T17:04:39.092Z,9.90
2022-12-16T17:09:53.937Z,11.85
2022-12-16T17:15:11.206Z,9.60
2022-12-16T17:20:27.536Z,10.73
2022-12-16T17:25:42.514Z,9.75
2022-12-16T17:30:57.997Z,10.55
2022-12-16T17:36:13.280Z,12.02
2022-12-16T17:41:28.304Z,12.07
2022-12-16T17:46:43.440Z,13.48
2022-12-16T17:51:58.903Z,12.75
2022-12-16T17:57:14.169Z,12.40
2022-12-16T18:02:31.348Z,14.45
2022-12-16T18:07:46.385Z,16.10
2022-12-16T18:13:01.206Z,17.05
2022-12-16T18:18:16.336Z,14.43
2022-12-16T18:23:32.134Z,15.38
2022-12-16T18:28:47.229Z,15.40
2022-12-16T18:34:02.110Z,17.40
2022-12-16T18:39:16.871Z,15.48
2022-12-16T18:44:32.365Z,16.67
2022-12-16T18:49:47.567Z,16.38
2022-12-16T18:55:04.299Z,15.00
2022-12-16T19:00:19.062Z,17.85
2022-12-16T19:05:34.735Z,17.70
2022-12-16T19:10:49.822Z,16.73
2022-12-16T19:16:14.857Z,17.35
2022-12-16T19:21:29.762Z,20.23
2022-12-16T19:26:45.221Z,24.13
2022-12-16T19:32:00.400Z,22.85
2022-12-16T19:37:15.427Z,24.58
2022-12-16T19:42:30.990Z,22.38
2022-12-16T19:47:45.786Z,19.30
2022-12-16T19:53:00.854Z,24.17
2022-12-16T19:58:15.858Z,21.50
2022-12-16T20:03:35.244Z,21.10
2022-12-16T20:08:50.421Z,21.38
2022-12-16T20:14:06.844Z,23.25
2022-12-16T20:19:21.732Z,22.55
2022-12-16T20:24:36.774Z,22.85
2022-12-16T20:29:51.681Z,19.52
2022-12-16T20:35:06.536Z,18.77
2022-12-16T20:40:22.785Z,19.42
2022-12-16T20:45:38.028Z,20.02
2022-12-16T20:50:53.535Z,20.40
2022-12-16T20:56:10.942Z,21.17
2022-12-16T21:01:26.213Z,23.33
2022-12-16T21:06:41.510Z,20.20
2022-12-16T21:11:56.727Z,21.17
2022-12-16T21:17:11.721Z,20.30
2022-12-16T21:22:26.758Z,20.25
2022-12-16T21:27:41.631Z,19.75
2022-12-16T21:32:56.756Z,21.17
2022-12-16T21:38:12.642Z,17.98
2022-12-16T21:43:27.874Z,18.58
2022-12-16T21:48:42.836Z,19.23
2022-12-16T21:53:58.645Z,18.65
2022-12-16T21:59:16.068Z,17.77
2022-12-16T22:04:31.221Z,18.25
2022-12-16T22:09:46.137Z,17.15
2022-12-16T22:15:01.220Z,15.88
2022-12-16T22:20:16.067Z,17.35
2022-12-16T22:25:30.933Z,17.90
2022-12-16T22:30:45.808Z,17.73
2022-12-16T22:36:01.041Z,16.40
2022-12-16T22:41:17.003Z,17.75
2022-12-16T22:46:31.982Z,16.92
2022-12-16T22:51:46.952Z,16.42
2022-12-16T22:57:02.725Z,18.25
2022-12-16T23:02:17.853Z,15.57
2022-12-16T23:07:32.979Z,15.60
2022-12-16T23:12:48.267Z,15.70
2022-12-16T23:18:03.545Z,15.95
2022-12-16T23:23:18.417Z,16.38
2022-12-16T23:28:33.175Z,15.57
2022-12-16T23:33:47.908Z,16.67
2022-12-16T23:39:02.736Z,15.40
2022-12-16T23:44:17.707Z,15.68
2022-12-16T23:49:33.326Z,16.02
2022-12-16T23:55:04.927Z,20.05
